sensor_id;sensor_type;location;lat;lon;timestamp;temperature;humidity
10095;DHT22;5086;50.830;7.102;2023-08-01T00:00:58;17.50;99.90
10095;DHT22;5086;50.830;7.102;2023-08-01T00:03:25;17.60;99.90
10095;DHT22;5086;50.830;7.102;2023-08-01T00:05:52;17.60;99.90
10095;DHT22;5086;50.830;7.102;2023-08-01T00:08:21;17.60;99.90
10095;DHT22;5086;50.830;7.102;2023-08-01T00:10:48;17.60;99.90
10095;DHT22;5086;50.830;7.102;2023-08-01T00:13:16;17.60;99.90
10095;DHT22;5086;50.830;7.102;2023-08-01T00:15:42;17.60;99.90
10095;DHT22;5086;50.830;7.102;2023-08-01T00:18:09;17.60;99.90
10095;DHT22;5086;50.830;7.102;2023-08-01T00:20:36;17.60;99.90
10095;DHT22;5086;50.830;7.102;2023-08-01T00:23:05;17.60;99.90
10095;DHT22;5086;50.830;7.102;2023-08-01T00:25:33;17.60;99.90
10095;DHT22;5086;50.830;7.102;2023-08-01T00:28:00;17.60;99.90
10095;DHT22;5086;50.830;7.102;2023-08-01T00:30:27;17.60;99.90
10095;DHT22;5086;50.830;7.102;2023-08-01T00:32:54;17.60;99.90
10095;DHT22;5086;50.830;7.102;2023-08-01T00:35:24;17.60;99.90
10095;DHT22;5086;50.830;7.102;2023-08-01T00:37:51;17.60;99.90
10095;DHT22;5086;50.830;7.102;2023-08-01T00:40:18;17.60;99.90
10095;DHT22;5086;50.830;7.102;2023-08-01T00:42:49;17.60;99.90
10095;DHT22;5086;50.830;7.102;2023-08-01T00:45:21;17.60;99.90
10095;DHT22;5086;50.830;7.102;2023-08-01T00:47:50;17.60;99.90
10095;DHT22;5086;50.830;7.102;2023-08-01T00:50:17;17.50;99.90
10095;DHT22;5086;50.830;7.102;2023-08-01T00:52:45;17.50;99.90
10095;DHT22;5086;50.830;7.102;2023-08-01T00:55:13;17.50;99.90
10095;DHT22;5086;50.830;7.102;2023-08-01T00:57:40;17.50;99.90
10095;DHT22;5086;50.830;7.102;2023-08-01T01:00:10;17.40;99.90
10095;DHT22;5086;50.830;7.102;2023-08-01T01:02:37;17.50;99.90
10095;DHT22;5086;50.830;7.102;2023-08-01T01:05:05;17.50;99.90
10095;DHT22;5086;50.830;7.102;2023-08-01T01:07:33;17.50;99.90
10095;DHT22;5086;50.830;7.102;2023-08-01T01:10:00;17.50;99.90
10095;DHT22;5086;50.830;7.102;2023-08-01T01:12:27;17.50;99.90
10095;DHT22;5086;50.830;7.102;2023-08-01T01:14:54;17.50;99.90
10095;DHT22;5086;50.830;7.102;2023-08-01T01:17:22;17.50;99.90
10095;DHT22;5086;50.830;7.102;2023-08-01T01:19:49;17.50;99.90
10095;DHT22;5086;50.830;7.102;2023-08-01T01:22:18;17.50;99.90
10095;DHT22;5086;50.830;7.102;2023-08-01T01:24:46;17.50;99.90
10095;DHT22;5086;50.830;7.102;2023-08-01T01:27:15;17.50;99.90
10095;DHT22;5086;50.830;7.102;2023-08-01T01:29:43;17.50;99.90
10095;DHT22;5086;50.830;7.102;2023-08-01T01:32:11;17.50;99.90
10095;DHT22;5086;50.830;7.102;2023-08-01T01:34:38;17.50;99.90
10095;DHT22;5086;50.830;7.102;2023-08-01T01:37:05;17.50;99.90
10095;DHT22;5086;50.830;7.102;2023-08-01T01:39:34;17.50;99.90
10095;DHT22;5086;50.830;7.102;2023-08-01T01:42:01;17.50;99.90
10095;DHT22;5086;50.830;7.102;2023-08-01T01:44:28;17.50;99.90
10095;DHT22;5086;50.830;7.102;2023-08-01T01:46:55;17.50;99.90
10095;DHT22;5086;50.830;7.102;2023-08-01T01:49:22;17.50;99.90
10095;DHT22;5086;50.830;7.102;2023-08-01T01:51:50;17.50;99.90
10095;DHT22;5086;50.830;7.102;2023-08-01T01:54:17;17.50;99.90
10095;DHT22;5086;50.830;7.102;2023-08-01T01:56:47;17.40;99.90
10095;DHT22;5086;50.830;7.102;2023-08-01T01:59:14;17.40;99.90
10095;DHT22;5086;50.830;7.102;2023-08-01T02:01:42;17.40;99.90
10095;DHT22;5086;50.830;7.102;2023-08-01T02:04:09;17.40;99.90
10095;DHT22;5086;50.830;7.102;2023-08-01T02:06:36;17.40;99.90
10095;DHT22;5086;50.830;7.102;2023-08-01T02:09:03;17.40;99.90
10095;DHT22;5086;50.830;7.102;2023-08-01T02:11:31;17.40;99.90
10095;DHT22;5086;50.830;7.102;2023-08-01T02:13:59;17.30;99.90
10095;DHT22;5086;50.830;7.102;2023-08-01T02:16:27;17.30;99.90
10095;DHT22;5086;50.830;7.102;2023-08-01T02:18:54;17.40;99.90
10095;DHT22;5086;50.830;7.102;2023-08-01T02:21:20;17.40;99.90
10095;DHT22;5086;50.830;7.102;2023-08-01T02:23:47;17.40;99.90
10095;DHT22;5086;50.830;7.102;2023-08-01T02:26:14;17.40;99.90
10095;DHT22;5086;50.830;7.102;2023-08-01T02:28:41;17.50;99.90
10095;DHT22;5086;50.830;7.102;2023-08-01T02:31:09;17.50;99.90
10095;DHT22;5086;50.830;7.102;2023-08-01T02:33:36;17.40;99.90
10095;DHT22;5086;50.830;7.102;2023-08-01T02:36:04;17.40;99.90
10095;DHT22;5086;50.830;7.102;2023-08-01T02:38:31;17.40;99.90
10095;DHT22;5086;50.830;7.102;2023-08-01T02:40:58;17.50;99.90
10095;DHT22;5086;50.830;7.102;2023-08-01T02:43:25;17.40;99.90
10095;DHT22;5086;50.830;7.102;2023-08-01T02:45:51;17.40;99.90
10095;DHT22;5086;50.830;7.102;2023-08-01T02:48:20;17.30;99.90
10095;DHT22;5086;50.830;7.102;2023-08-01T02:50:47;17.20;99.90
10095;DHT22;5086;50.830;7.102;2023-08-01T02:53:14;17.20;99.90
10095;DHT22;5086;50.830;7.102;2023-08-01T02:55:41;17.10;99.90
10095;DHT22;5086;50.830;7.102;2023-08-01T02:58:08;17.10;99.90
10095;DHT22;5086;50.830;7.102;2023-08-01T03:00:37;17.00;99.90
10095;DHT22;5086;50.830;7.102;2023-08-01T03:03:04;17.10;99.90
10095;DHT22;5086;50.830;7.102;2023-08-01T03:05:35;17.00;99.90
10095;DHT22;5086;50.830;7.102;2023-08-01T03:08:03;17.00;99.90
10095;DHT22;5086;50.830;7.102;2023-08-01T03:10:30;17.00;99.90
10095;DHT22;5086;50.830;7.102;2023-08-01T03:12:57;16.90;99.90
10095;DHT22;5086;50.830;7.102;2023-08-01T03:15:24;16.90;99.90
10095;DHT22;5086;50.830;7.102;2023-08-01T03:17:50;16.90;99.90
10095;DHT22;5086;50.830;7.102;2023-08-01T03:20:17;16.90;99.90
10095;DHT22;5086;50.830;7.102;2023-08-01T03:22:46;16.80;99.90
10095;DHT22;5086;50.830;7.102;2023-08-01T03:25:13;16.80;99.90
10095;DHT22;5086;50.830;7.102;2023-08-01T03:27:40;16.90;99.90
10095;DHT22;5086;50.830;7.102;2023-08-01T03:30:07;16.90;99.90
10095;DHT22;5086;50.830;7.102;2023-08-01T03:32:35;16.80;99.90
10095;DHT22;5086;50.830;7.102;2023-08-01T03:35:03;16.80;99.90
10095;DHT22;5086;50.830;7.102;2023-08-01T03:37:30;16.80;99.90
10095;DHT22;5086;50.830;7.102;2023-08-01T03:39:58;16.70;99.90
10095;DHT22;5086;50.830;7.102;2023-08-01T03:42:25;16.70;99.90
10095;DHT22;5086;50.830;7.102;2023-08-01T03:44:52;16.70;99.90
10095;DHT22;5086;50.830;7.102;2023-08-01T03:47:19;16.70;99.90
10095;DHT22;5086;50.830;7.102;2023-08-01T03:49:46;16.70;99.90
10095;DHT22;5086;50.830;7.102;2023-08-01T03:52:13;16.70;99.90
10095;DHT22;5086;50.830;7.102;2023-08-01T03:54:40;16.70;99.90
10095;DHT22;5086;50.830;7.102;2023-08-01T03:57:08;16.70;99.90
10095;DHT22;5086;50.830;7.102;2023-08-01T03:59:36;16.60;99.90
10095;DHT22;5086;50.830;7.102;2023-08-01T04:02:03;16.70;99.90
10095;DHT22;5086;50.830;7.102;2023-08-01T04:04:30;16.60;99.90
10095;DHT22;5086;50.830;7.102;2023-08-01T04:06:57;16.60;99.90
10095;DHT22;5086;50.830;7.102;2023-08-01T04:09:24;16.50;99.90
10095;DHT22;5086;50.830;7.102;2023-08-01T04:11:51;16.60;99.90
10095;DHT22;5086;50.830;7.102;2023-08-01T04:14:19;16.50;99.90
10095;DHT22;5086;50.830;7.102;2023-08-01T04:16:46;16.50;99.90
10095;DHT22;5086;50.830;7.102;2023-08-01T04:19:13;16.60;99.90
10095;DHT22;5086;50.830;7.102;2023-08-01T04:21:40;16.50;99.90
10095;DHT22;5086;50.830;7.102;2023-08-01T04:24:06;16.60;99.90
10095;DHT22;5086;50.830;7.102;2023-08-01T04:26:33;16.60;99.90
10095;DHT22;5086;50.830;7.102;2023-08-01T04:29:02;16.50;99.90
10095;DHT22;5086;50.830;7.102;2023-08-01T04:31:30;16.60;99.90
10095;DHT22;5086;50.830;7.102;2023-08-01T04:33:57;16.60;99.90
10095;DHT22;5086;50.830;7.102;2023-08-01T04:36:24;16.60;99.90
10095;DHT22;5086;50.830;7.102;2023-08-01T04:38:51;16.60;99.90
10095;DHT22;5086;50.830;7.102;2023-08-01T04:41:18;16.60;99.90
10095;DHT22;5086;50.830;7.102;2023-08-01T04:43:45;16.50;99.90
10095;DHT22;5086;50.830;7.102;2023-08-01T04:46:12;16.60;99.90
10095;DHT22;5086;50.830;7.102;2023-08-01T04:48:40;16.60;99.90
10095;DHT22;5086;50.830;7.102;2023-08-01T04:51:07;16.50;99.90
10095;DHT22;5086;50.830;7.102;2023-08-01T04:53:33;16.60;99.90
10095;DHT22;5086;50.830;7.102;2023-08-01T04:56:00;16.50;99.90
10095;DHT22;5086;50.830;7.102;2023-08-01T04:58:27;16.50;99.90
10095;DHT22;5086;50.830;7.102;2023-08-01T05:00:56;16.50;99.90
10095;DHT22;5086;50.830;7.102;2023-08-01T05:03:23;16.50;99.90
10095;DHT22;5086;50.830;7.102;2023-08-01T05:05:51;16.50;99.90
10095;DHT22;5086;50.830;7.102;2023-08-01T05:08:18;16.60;99.90
10095;DHT22;5086;50.830;7.102;2023-08-01T05:10:45;16.50;99.90
10095;DHT22;5086;50.830;7.102;2023-08-01T05:13:12;16.50;99.90
10095;DHT22;5086;50.830;7.102;2023-08-01T05:15:45;16.50;99.90
10095;DHT22;5086;50.830;7.102;2023-08-01T05:18:13;16.40;99.90
10095;DHT22;5086;50.830;7.102;2023-08-01T05:20:40;16.40;99.90
10095;DHT22;5086;50.830;7.102;2023-08-01T05:23:08;16.50;99.90
10095;DHT22;5086;50.830;7.102;2023-08-01T05:25:35;16.50;99.90
10095;DHT22;5086;50.830;7.102;2023-08-01T05:28:02;16.50;99.90
10095;DHT22;5086;50.830;7.102;2023-08-01T05:30:29;16.50;99.90
10095;DHT22;5086;50.830;7.102;2023-08-01T05:32:56;16.50;99.90
10095;DHT22;5086;50.830;7.102;2023-08-01T05:35:23;16.60;99.90
10095;DHT22;5086;50.830;7.102;2023-08-01T05:37:50;16.60;99.90
10095;DHT22;5086;50.830;7.102;2023-08-01T05:40:19;16.70;99.90
10095;DHT22;5086;50.830;7.102;2023-08-01T05:42:45;16.80;99.90
10095;DHT22;5086;50.830;7.102;2023-08-01T05:45:12;16.90;99.90
10095;DHT22;5086;50.830;7.102;2023-08-01T05:47:39;16.90;99.90
10095;DHT22;5086;50.830;7.102;2023-08-01T05:50:07;16.90;99.90
10095;DHT22;5086;50.830;7.102;2023-08-01T05:52:34;16.90;99.90
10095;DHT22;5086;50.830;7.102;2023-08-01T05:55:01;16.80;99.90
10095;DHT22;5086;50.830;7.102;2023-08-01T05:57:29;16.80;99.90
10095;DHT22;5086;50.830;7.102;2023-08-01T05:59:56;16.90;99.90
10095;DHT22;5086;50.830;7.102;2023-08-01T06:02:23;16.90;99.90
10095;DHT22;5086;50.830;7.102;2023-08-01T06:04:50;16.90;99.90
10095;DHT22;5086;50.830;7.102;2023-08-01T06:07:17;17.00;99.90
10095;DHT22;5086;50.830;7.102;2023-08-01T06:09:48;17.00;99.90
10095;DHT22;5086;50.830;7.102;2023-08-01T06:12:17;16.90;99.90
10095;DHT22;5086;50.830;7.102;2023-08-01T06:14:46;16.80;99.90
10095;DHT22;5086;50.830;7.102;2023-08-01T06:17:13;16.90;99.90
10095;DHT22;5086;50.830;7.102;2023-08-01T06:19:41;17.00;99.90
10095;DHT22;5086;50.830;7.102;2023-08-01T06:22:08;17.00;99.90
10095;DHT22;5086;50.830;7.102;2023-08-01T06:24:35;17.10;99.90
10095;DHT22;5086;50.830;7.102;2023-08-01T06:27:02;17.20;99.90
10095;DHT22;5086;50.830;7.102;2023-08-01T06:29:30;17.20;99.90
10095;DHT22;5086;50.830;7.102;2023-08-01T06:31:58;17.30;99.90
10095;DHT22;5086;50.830;7.102;2023-08-01T06:34:25;17.40;99.90
10095;DHT22;5086;50.830;7.102;2023-08-01T06:36:52;17.60;99.90
10095;DHT22;5086;50.830;7.102;2023-08-01T06:39:19;17.60;99.90
10095;DHT22;5086;50.830;7.102;2023-08-01T06:41:46;17.70;99.90
10095;DHT22;5086;50.830;7.102;2023-08-01T06:44:13;17.70;99.90
10095;DHT22;5086;50.830;7.102;2023-08-01T06:46:40;17.90;99.90
10095;DHT22;5086;50.830;7.102;2023-08-01T06:49:08;18.10;99.90
10095;DHT22;5086;50.830;7.102;2023-08-01T06:51:37;18.10;99.90
10095;DHT22;5086;50.830;7.102;2023-08-01T06:54:06;17.90;99.90
10095;DHT22;5086;50.830;7.102;2023-08-01T06:56:33;17.90;99.90
10095;DHT22;5086;50.830;7.102;2023-08-01T06:59:00;18.20;99.90
10095;DHT22;5086;50.830;7.102;2023-08-01T07:01:27;18.60;99.90
10095;DHT22;5086;50.830;7.102;2023-08-01T07:03:54;19.30;99.90
10095;DHT22;5086;50.830;7.102;2023-08-01T07:06:23;20.10;99.90
10095;DHT22;5086;50.830;7.102;2023-08-01T07:08:50;20.40;99.90
10095;DHT22;5086;50.830;7.102;2023-08-01T07:11:17;20.60;99.90
10095;DHT22;5086;50.830;7.102;2023-08-01T07:13:44;20.80;99.90
10095;DHT22;5086;50.830;7.102;2023-08-01T07:16:11;20.60;99.90
10095;DHT22;5086;50.830;7.102;2023-08-01T07:18:38;20.60;99.90
10095;DHT22;5086;50.830;7.102;2023-08-01T07:21:05;20.80;99.90
10095;DHT22;5086;50.830;7.102;2023-08-01T07:23:34;21.00;99.90
10095;DHT22;5086;50.830;7.102;2023-08-01T07:26:02;21.40;99.90
10095;DHT22;5086;50.830;7.102;2023-08-01T07:28:29;21.50;99.90
10095;DHT22;5086;50.830;7.102;2023-08-01T07:30:59;21.10;99.90
10095;DHT22;5086;50.830;7.102;2023-08-01T07:33:26;20.80;99.90
10095;DHT22;5086;50.830;7.102;2023-08-01T07:35:53;20.80;99.90
10095;DHT22;5086;50.830;7.102;2023-08-01T07:38:20;20.90;99.90
10095;DHT22;5086;50.830;7.102;2023-08-01T07:40:50;21.00;99.90
10095;DHT22;5086;50.830;7.102;2023-08-01T07:43:17;20.80;99.90
10095;DHT22;5086;50.830;7.102;2023-08-01T07:45:44;20.80;99.90
10095;DHT22;5086;50.830;7.102;2023-08-01T07:48:11;20.30;99.90
10095;DHT22;5086;50.830;7.102;2023-08-01T07:50:38;19.80;99.90
10095;DHT22;5086;50.830;7.102;2023-08-01T07:53:04;19.60;99.90
10095;DHT22;5086;50.830;7.102;2023-08-01T07:55:33;19.30;99.90
10095;DHT22;5086;50.830;7.102;2023-08-01T07:58:02;19.20;99.90
10095;DHT22;5086;50.830;7.102;2023-08-01T08:00:29;19.10;99.90
10095;DHT22;5086;50.830;7.102;2023-08-01T08:02:55;18.80;99.90
10095;DHT22;5086;50.830;7.102;2023-08-01T08:05:22;18.70;99.90
10095;DHT22;5086;50.830;7.102;2023-08-01T08:07:51;18.70;99.90
10095;DHT22;5086;50.830;7.102;2023-08-01T08:10:19;18.60;99.90
10095;DHT22;5086;50.830;7.102;2023-08-01T08:12:46;18.70;99.90
10095;DHT22;5086;50.830;7.102;2023-08-01T08:15:16;18.80;99.90
10095;DHT22;5086;50.830;7.102;2023-08-01T08:17:45;18.90;99.90
10095;DHT22;5086;50.830;7.102;2023-08-01T08:20:12;19.00;99.90
10095;DHT22;5086;50.830;7.102;2023-08-01T08:22:38;19.10;99.90
10095;DHT22;5086;50.830;7.102;2023-08-01T08:25:12;19.30;99.90
10095;DHT22;5086;50.830;7.102;2023-08-01T08:27:41;19.50;99.90
10095;DHT22;5086;50.830;7.102;2023-08-01T08:30:11;19.90;99.90
10095;DHT22;5086;50.830;7.102;2023-08-01T08:32:47;20.00;99.90
10095;DHT22;5086;50.830;7.102;2023-08-01T08:35:16;19.90;99.90
10095;DHT22;5086;50.830;7.102;2023-08-01T08:37:43;19.90;99.90
10095;DHT22;5086;50.830;7.102;2023-08-01T08:40:12;20.00;99.90
10095;DHT22;5086;50.830;7.102;2023-08-01T08:42:40;20.00;99.90
10095;DHT22;5086;50.830;7.102;2023-08-01T08:45:08;20.10;99.90
10095;DHT22;5086;50.830;7.102;2023-08-01T08:47:38;20.20;99.90
10095;DHT22;5086;50.830;7.102;2023-08-01T08:50:09;20.00;99.90
10095;DHT22;5086;50.830;7.102;2023-08-01T08:52:37;20.00;99.90
10095;DHT22;5086;50.830;7.102;2023-08-01T08:55:06;20.00;99.90
10095;DHT22;5086;50.830;7.102;2023-08-01T08:57:34;20.10;99.90
10095;DHT22;5086;50.830;7.102;2023-08-01T09:00:04;20.20;99.90
10095;DHT22;5086;50.830;7.102;2023-08-01T09:02:32;20.20;99.90
10095;DHT22;5086;50.830;7.102;2023-08-01T09:04:59;20.20;99.90
10095;DHT22;5086;50.830;7.102;2023-08-01T09:07:30;20.00;99.90
10095;DHT22;5086;50.830;7.102;2023-08-01T09:10:00;19.90;99.90
10095;DHT22;5086;50.830;7.102;2023-08-01T09:12:26;19.80;99.90
10095;DHT22;5086;50.830;7.102;2023-08-01T09:14:58;20.00;99.90
10095;DHT22;5086;50.830;7.102;2023-08-01T09:17:26;20.00;99.90
10095;DHT22;5086;50.830;7.102;2023-08-01T09:19:55;20.20;99.90
10095;DHT22;5086;50.830;7.102;2023-08-01T09:22:23;20.40;99.90
10095;DHT22;5086;50.830;7.102;2023-08-01T09:24:52;20.40;99.90
10095;DHT22;5086;50.830;7.102;2023-08-01T09:27:21;20.40;99.90
10095;DHT22;5086;50.830;7.102;2023-08-01T09:29:52;20.50;99.90
10095;DHT22;5086;50.830;7.102;2023-08-01T09:32:20;20.80;99.90
10095;DHT22;5086;50.830;7.102;2023-08-01T09:34:47;20.80;99.90
10095;DHT22;5086;50.830;7.102;2023-08-01T09:37:38;20.80;99.90
10095;DHT22;5086;50.830;7.102;2023-08-01T09:40:09;20.80;99.90
10095;DHT22;5086;50.830;7.102;2023-08-01T09:42:39;20.90;99.90
10095;DHT22;5086;50.830;7.102;2023-08-01T09:45:12;20.90;99.90
10095;DHT22;5086;50.830;7.102;2023-08-01T09:47:40;21.10;99.90
10095;DHT22;5086;50.830;7.102;2023-08-01T09:50:09;21.10;99.90
10095;DHT22;5086;50.830;7.102;2023-08-01T09:52:36;21.10;99.90
10095;DHT22;5086;50.830;7.102;2023-08-01T09:55:03;21.00;99.90
10095;DHT22;5086;50.830;7.102;2023-08-01T09:57:32;21.10;99.90
10095;DHT22;5086;50.830;7.102;2023-08-01T09:59:59;21.10;99.90
10095;DHT22;5086;50.830;7.102;2023-08-01T10:02:30;21.20;99.90
10095;DHT22;5086;50.830;7.102;2023-08-01T10:05:00;21.30;99.90
10095;DHT22;5086;50.830;7.102;2023-08-01T10:07:29;21.70;99.90
10095;DHT22;5086;50.830;7.102;2023-08-01T10:09:58;21.70;99.90
10095;DHT22;5086;50.830;7.102;2023-08-01T10:12:28;21.80;99.90
10095;DHT22;5086;50.830;7.102;2023-08-01T10:14:58;21.60;99.90
10095;DHT22;5086;50.830;7.102;2023-08-01T10:17:25;21.80;99.90
10095;DHT22;5086;50.830;7.102;2023-08-01T10:19:53;22.00;99.90
10095;DHT22;5086;50.830;7.102;2023-08-01T10:22:23;22.00;99.90
10095;DHT22;5086;50.830;7.102;2023-08-01T10:24:51;21.90;99.90
10095;DHT22;5086;50.830;7.102;2023-08-01T10:27:20;22.20;99.90
10095;DHT22;5086;50.830;7.102;2023-08-01T10:29:58;22.30;99.90
10095;DHT22;5086;50.830;7.102;2023-08-01T10:32:32;22.20;99.90
10095;DHT22;5086;50.830;7.102;2023-08-01T10:34:59;22.40;99.90
10095;DHT22;5086;50.830;7.102;2023-08-01T10:37:26;22.30;99.90
10095;DHT22;5086;50.830;7.102;2023-08-01T10:39:57;22.20;99.90
10095;DHT22;5086;50.830;7.102;2023-08-01T10:42:25;21.90;99.90
10095;DHT22;5086;50.830;7.102;2023-08-01T10:44:52;21.80;99.90
10095;DHT22;5086;50.830;7.102;2023-08-01T10:47:27;22.00;99.90
10095;DHT22;5086;50.830;7.102;2023-08-01T10:49:54;22.20;99.90
10095;DHT22;5086;50.830;7.102;2023-08-01T10:52:22;22.10;99.90
10095;DHT22;5086;50.830;7.102;2023-08-01T10:54:56;21.80;99.90
10095;DHT22;5086;50.830;7.102;2023-08-01T10:57:24;21.50;99.90
10095;DHT22;5086;50.830;7.102;2023-08-01T10:59:54;21.20;99.90
10095;DHT22;5086;50.830;7.102;2023-08-01T11:02:23;21.20;99.90
10095;DHT22;5086;50.830;7.102;2023-08-01T11:05:00;21.50;99.90
10095;DHT22;5086;50.830;7.102;2023-08-01T11:07:28;21.80;99.90
10095;DHT22;5086;50.830;7.102;2023-08-01T11:10:06;22.10;99.90
10095;DHT22;5086;50.830;7.102;2023-08-01T11:12:35;22.40;99.90
10095;DHT22;5086;50.830;7.102;2023-08-01T11:15:03;22.50;99.90
10095;DHT22;5086;50.830;7.102;2023-08-01T11:17:31;22.60;99.90
10095;DHT22;5086;50.830;7.102;2023-08-01T11:20:05;22.70;99.90
10095;DHT22;5086;50.830;7.102;2023-08-01T11:22:33;22.50;99.90
10095;DHT22;5086;50.830;7.102;2023-08-01T11:25:00;22.40;99.90
10095;DHT22;5086;50.830;7.102;2023-08-01T11:27:28;22.20;99.90
10095;DHT22;5086;50.830;7.102;2023-08-01T11:29:55;21.80;99.90
10095;DHT22;5086;50.830;7.102;2023-08-01T11:32:32;21.70;99.90
10095;DHT22;5086;50.830;7.102;2023-08-01T11:35:00;21.70;99.90
10095;DHT22;5086;50.830;7.102;2023-08-01T11:37:31;21.80;99.90
10095;DHT22;5086;50.830;7.102;2023-08-01T11:39:59;21.80;99.90
10095;DHT22;5086;50.830;7.102;2023-08-01T11:42:30;21.50;99.90
10095;DHT22;5086;50.830;7.102;2023-08-01T11:45:08;21.50;99.90
10095;DHT22;5086;50.830;7.102;2023-08-01T11:47:36;21.80;99.90
10095;DHT22;5086;50.830;7.102;2023-08-01T11:50:04;22.00;99.90
10095;DHT22;5086;50.830;7.102;2023-08-01T11:52:34;22.00;99.90
10095;DHT22;5086;50.830;7.102;2023-08-01T11:55:01;21.90;99.90
10095;DHT22;5086;50.830;7.102;2023-08-01T11:57:28;21.80;99.90
10095;DHT22;5086;50.830;7.102;2023-08-01T11:59:56;21.80;99.90
10095;DHT22;5086;50.830;7.102;2023-08-01T12:02:23;21.80;99.90
10095;DHT22;5086;50.830;7.102;2023-08-01T12:04:51;21.40;99.90
10095;DHT22;5086;50.830;7.102;2023-08-01T12:07:18;21.10;99.90
10095;DHT22;5086;50.830;7.102;2023-08-01T12:09:55;20.40;99.90
10095;DHT22;5086;50.830;7.102;2023-08-01T12:12:22;19.70;99.90
10095;DHT22;5086;50.830;7.102;2023-08-01T12:14:49;19.60;99.90
10095;DHT22;5086;50.830;7.102;2023-08-01T12:17:15;19.80;99.90
10095;DHT22;5086;50.830;7.102;2023-08-01T12:19:42;19.90;99.90
10095;DHT22;5086;50.830;7.102;2023-08-01T12:22:09;20.30;99.90
10095;DHT22;5086;50.830;7.102;2023-08-01T12:24:39;20.50;99.90
10095;DHT22;5086;50.830;7.102;2023-08-01T12:27:12;20.80;99.90
10095;DHT22;5086;50.830;7.102;2023-08-01T12:29:39;20.80;99.90
10095;DHT22;5086;50.830;7.102;2023-08-01T12:32:12;20.90;99.90
10095;DHT22;5086;50.830;7.102;2023-08-01T12:34:39;21.00;99.90
10095;DHT22;5086;50.830;7.102;2023-08-01T12:37:08;21.00;99.90
10095;DHT22;5086;50.830;7.102;2023-08-01T12:39:39;20.90;99.90
10095;DHT22;5086;50.830;7.102;2023-08-01T12:42:06;21.00;99.90
10095;DHT22;5086;50.830;7.102;2023-08-01T12:44:35;21.00;99.90
10095;DHT22;5086;50.830;7.102;2023-08-01T12:47:02;20.80;99.90
10095;DHT22;5086;50.830;7.102;2023-08-01T12:49:29;20.50;99.90
10095;DHT22;5086;50.830;7.102;2023-08-01T12:51:55;20.30;99.90
10095;DHT22;5086;50.830;7.102;2023-08-01T12:54:23;20.10;99.90
10095;DHT22;5086;50.830;7.102;2023-08-01T12:56:50;20.10;99.90
10095;DHT22;5086;50.830;7.102;2023-08-01T12:59:20;20.30;99.90
10095;DHT22;5086;50.830;7.102;2023-08-01T13:01:49;20.40;99.90
10095;DHT22;5086;50.830;7.102;2023-08-01T13:04:16;20.60;99.90
10095;DHT22;5086;50.830;7.102;2023-08-01T13:06:44;20.70;99.90
10095;DHT22;5086;50.830;7.102;2023-08-01T13:09:11;20.60;99.90
10095;DHT22;5086;50.830;7.102;2023-08-01T13:11:38;20.60;99.90
10095;DHT22;5086;50.830;7.102;2023-08-01T13:14:08;20.60;99.90
10095;DHT22;5086;50.830;7.102;2023-08-01T13:16:35;20.80;99.90
10095;DHT22;5086;50.830;7.102;2023-08-01T13:19:04;21.00;99.90
10095;DHT22;5086;50.830;7.102;2023-08-01T13:21:31;21.10;99.90
10095;DHT22;5086;50.830;7.102;2023-08-01T13:23:59;21.10;99.90
10095;DHT22;5086;50.830;7.102;2023-08-01T13:26:30;21.30;99.90
10095;DHT22;5086;50.830;7.102;2023-08-01T13:28:58;21.40;99.90
10095;DHT22;5086;50.830;7.102;2023-08-01T13:31:25;21.50;99.90
10095;DHT22;5086;50.830;7.102;2023-08-01T13:33:52;21.60;99.90
10095;DHT22;5086;50.830;7.102;2023-08-01T13:36:23;21.70;99.90
10095;DHT22;5086;50.830;7.102;2023-08-01T13:38:52;21.60;99.90
10095;DHT22;5086;50.830;7.102;2023-08-01T13:41:21;21.50;99.90
10095;DHT22;5086;50.830;7.102;2023-08-01T13:43:48;21.40;99.90
10095;DHT22;5086;50.830;7.102;2023-08-01T13:46:16;21.40;99.90
10095;DHT22;5086;50.830;7.102;2023-08-01T13:48:45;21.40;99.90
10095;DHT22;5086;50.830;7.102;2023-08-01T13:51:12;21.50;99.90
10095;DHT22;5086;50.830;7.102;2023-08-01T13:53:41;21.70;99.90
10095;DHT22;5086;50.830;7.102;2023-08-01T13:56:08;21.80;99.90
10095;DHT22;5086;50.830;7.102;2023-08-01T13:58:37;21.90;99.90
10095;DHT22;5086;50.830;7.102;2023-08-01T14:01:07;21.70;99.90
10095;DHT22;5086;50.830;7.102;2023-08-01T14:03:44;21.70;99.90
10095;DHT22;5086;50.830;7.102;2023-08-01T14:06:12;21.60;99.90
10095;DHT22;5086;50.830;7.102;2023-08-01T14:08:42;21.60;99.90
10095;DHT22;5086;50.830;7.102;2023-08-01T14:11:11;21.50;99.90
10095;DHT22;5086;50.830;7.102;2023-08-01T14:13:41;21.30;99.90
10095;DHT22;5086;50.830;7.102;2023-08-01T14:16:11;21.20;99.90
10095;DHT22;5086;50.830;7.102;2023-08-01T14:18:40;21.10;99.90
10095;DHT22;5086;50.830;7.102;2023-08-01T14:21:08;21.00;99.90
10095;DHT22;5086;50.830;7.102;2023-08-01T14:23:35;20.80;99.90
10095;DHT22;5086;50.830;7.102;2023-08-01T14:26:20;20.50;99.90
10095;DHT22;5086;50.830;7.102;2023-08-01T14:28:49;20.00;99.90
10095;DHT22;5086;50.830;7.102;2023-08-01T14:31:18;19.70;99.90
10095;DHT22;5086;50.830;7.102;2023-08-01T14:33:45;19.40;99.90
10095;DHT22;5086;50.830;7.102;2023-08-01T14:36:13;19.20;99.90
10095;DHT22;5086;50.830;7.102;2023-08-01T14:38:41;19.00;99.90
10095;DHT22;5086;50.830;7.102;2023-08-01T14:41:08;19.00;99.90
10095;DHT22;5086;50.830;7.102;2023-08-01T14:43:40;19.00;99.90
10095;DHT22;5086;50.830;7.102;2023-08-01T14:46:07;19.10;99.90
10095;DHT22;5086;50.830;7.102;2023-08-01T14:48:35;19.20;99.90
10095;DHT22;5086;50.830;7.102;2023-08-01T14:51:08;19.30;99.90
10095;DHT22;5086;50.830;7.102;2023-08-01T14:53:35;19.50;99.90
10095;DHT22;5086;50.830;7.102;2023-08-01T14:56:02;19.70;99.90
10095;DHT22;5086;50.830;7.102;2023-08-01T14:58:31;19.90;99.90
10095;DHT22;5086;50.830;7.102;2023-08-01T15:01:05;20.20;99.90
10095;DHT22;5086;50.830;7.102;2023-08-01T15:03:39;20.60;99.90
10095;DHT22;5086;50.830;7.102;2023-08-01T15:06:08;20.90;99.90
10095;DHT22;5086;50.830;7.102;2023-08-01T15:08:37;21.00;99.90
10095;DHT22;5086;50.830;7.102;2023-08-01T15:11:05;21.00;99.90
10095;DHT22;5086;50.830;7.102;2023-08-01T15:13:33;20.90;99.90
10095;DHT22;5086;50.830;7.102;2023-08-01T15:16:02;20.80;99.90
10095;DHT22;5086;50.830;7.102;2023-08-01T15:18:33;20.50;99.90
10095;DHT22;5086;50.830;7.102;2023-08-01T15:21:18;20.30;99.90
10095;DHT22;5086;50.830;7.102;2023-08-01T15:23:55;20.20;99.90
10095;DHT22;5086;50.830;7.102;2023-08-01T15:26:26;20.20;99.90
10095;DHT22;5086;50.830;7.102;2023-08-01T15:28:53;20.20;99.90
10095;DHT22;5086;50.830;7.102;2023-08-01T15:31:22;20.10;99.90
10095;DHT22;5086;50.830;7.102;2023-08-01T15:33:53;20.00;99.90
10095;DHT22;5086;50.830;7.102;2023-08-01T15:36:26;20.00;99.90
10095;DHT22;5086;50.830;7.102;2023-08-01T15:38:54;19.90;99.90
10095;DHT22;5086;50.830;7.102;2023-08-01T15:41:25;19.70;99.90
10095;DHT22;5086;50.830;7.102;2023-08-01T15:43:55;19.70;99.90
10095;DHT22;5086;50.830;7.102;2023-08-01T15:46:22;19.60;99.90
10095;DHT22;5086;50.830;7.102;2023-08-01T15:48:57;19.70;99.90
10095;DHT22;5086;50.830;7.102;2023-08-01T15:51:24;19.80;99.90